createdAt,value
2017-12-17T00:01:55.130Z,2.87
2017-12-17T00:04:22.752Z,2.55
2017-12-17T00:06:50.387Z,2.33
2017-12-17T00:09:18.015Z,2.67
2017-12-17T00:11:45.594Z,2.75
2017-12-17T00:14:13.211Z,2.75
2017-12-17T00:16:40.945Z,2.85
2017-12-17T00:19:09.266Z,2.83
2017-12-17T00:21:36.883Z,3.20
2017-12-17T00:24:04.524Z,2.58
2017-12-17T00:26:32.098Z,2.30
2017-12-17T00:28:59.701Z,2.20
2017-12-17T00:31:27.290Z,2.00
2017-12-17T00:33:54.829Z,2.40
2017-12-17T00:36:22.654Z,2.28
2017-12-17T00:38:50.243Z,2.40
2017-12-17T00:41:18.166Z,2.00
2017-12-17T00:43:45.774Z,2.35
2017-12-17T00:46:13.396Z,2.10
2017-12-17T00:48:42.368Z,1.90
2017-12-17T00:51:10.059Z,2.20
2017-12-17T00:53:37.666Z,2.57
2017-12-17T00:56:06.136Z,2.67
2017-12-17T00:58:33.685Z,2.30
2017-12-17T01:01:01.459Z,2.30
2017-12-17T01:03:29.199Z,2.53
2017-12-17T01:05:56.769Z,2.12
2017-12-17T01:08:24.396Z,2.17
2017-12-17T01:10:51.922Z,2.00
2017-12-17T01:13:22.461Z,1.77
2017-12-17T01:15:51.475Z,1.60
2017-12-17T01:18:19.631Z,2.12
2017-12-17T01:20:51.498Z,1.70
2017-12-17T01:23:19.526Z,1.45
2017-12-17T01:25:47.067Z,1.12
2017-12-17T01:28:14.697Z,1.62
2017-12-17T01:30:42.314Z,1.60
2017-12-17T01:33:09.863Z,1.30
2017-12-17T01:35:37.446Z,1.33
2017-12-17T01:38:05.026Z,1.20
2017-12-17T01:40:33.499Z,1.20
2017-12-17T01:43:01.096Z,1.10
2017-12-17T01:45:28.712Z,1.40
2017-12-17T01:47:56.482Z,1.40
2017-12-17T01:50:24.088Z,1.35
2017-12-17T01:52:51.685Z,1.50
2017-12-17T01:55:19.287Z,1.33
2017-12-17T01:57:46.852Z,1.42
2017-12-17T02:00:14.545Z,1.30
2017-12-17T02:02:42.155Z,1.30
2017-12-17T02:05:09.736Z,1.15
2017-12-17T02:07:37.319Z,1.30
2017-12-17T02:10:04.891Z,1.30
2017-12-17T02:12:33.246Z,1.17
2017-12-17T02:15:00.875Z,1.08
2017-12-17T02:17:28.699Z,1.17
2017-12-17T02:19:56.316Z,1.60
2017-12-17T02:22:23.881Z,1.30
2017-12-17T02:24:51.461Z,1.45
2017-12-17T02:27:19.226Z,1.23
2017-12-17T02:29:46.863Z,1.20
2017-12-17T02:32:15.225Z,1.35
2017-12-17T02:34:42.831Z,1.35
2017-12-17T02:37:10.419Z,1.27
2017-12-17T02:39:38.011Z,1.30
2017-12-17T02:42:05.649Z,1.12
2017-12-17T02:44:33.422Z,1.10
2017-12-17T02:47:01.365Z,1.20
2017-12-17T02:49:28.934Z,1.10
2017-12-17T02:51:56.516Z,1.48
2017-12-17T02:54:24.141Z,1.23
2017-12-17T02:56:51.728Z,1.20
2017-12-17T02:59:19.302Z,1.55
2017-12-17T03:01:46.908Z,1.10
2017-12-17T03:04:14.485Z,1.33
2017-12-17T03:06:42.058Z,1.10
2017-12-17T03:09:09.723Z,1.60
2017-12-17T03:11:37.365Z,1.40
2017-12-17T03:14:04.966Z,1.10
2017-12-17T03:16:32.551Z,1.35
2017-12-17T03:19:00.679Z,1.30
2017-12-17T03:21:28.218Z,1.35
2017-12-17T03:23:55.838Z,1.23
2017-12-17T03:26:23.641Z,1.20
2017-12-17T03:28:51.376Z,1.40
2017-12-17T03:31:19.774Z,1.50
2017-12-17T03:33:47.381Z,1.40
2017-12-17T03:36:14.942Z,1.12
2017-12-17T03:38:43.030Z,1.10
2017-12-17T03:41:10.830Z,1.50
2017-12-17T03:43:39.251Z,1.67
2017-12-17T03:46:06.907Z,1.60
2017-12-17T03:48:34.497Z,1.50
2017-12-17T03:51:02.214Z,1.33
2017-12-17T03:53:30.315Z,1.55
2017-12-17T03:55:58.430Z,1.40
2017-12-17T03:58:26.067Z,1.42
2017-12-17T04:00:53.851Z,1.60
2017-12-17T04:03:21.401Z,1.50
2017-12-17T04:05:48.977Z,1.65
2017-12-17T04:08:17.395Z,2.10
2017-12-17T04:10:45.096Z,1.80
2017-12-17T04:13:12.675Z,2.25
2017-12-17T04:15:40.287Z,1.95
2017-12-17T04:18:07.948Z,2.47
2017-12-17T04:20:35.547Z,1.87
2017-12-17T04:23:03.163Z,1.62
2017-12-17T04:25:31.592Z,2.10
2017-12-17T04:27:59.233Z,2.10
2017-12-17T04:30:27.006Z,1.95
2017-12-17T04:32:54.825Z,1.85
2017-12-17T04:35:22.410Z,1.85
2017-12-17T04:37:49.987Z,2.37
2017-12-17T04:40:17.596Z,2.12
2017-12-17T04:42:45.150Z,2.20
2017-12-17T04:45:13.932Z,1.80
2017-12-17T04:47:41.558Z,2.25
2017-12-17T04:50:09.167Z,1.60
2017-12-17T04:52:36.894Z,1.50
2017-12-17T04:55:04.696Z,1.60
2017-12-17T04:57:32.551Z,1.80
2017-12-17T05:00:00.170Z,1.50
2017-12-17T05:02:27.800Z,1.75
2017-12-17T05:04:55.433Z,2.10
2017-12-17T05:07:23.313Z,2.12
2017-12-17T05:09:50.944Z,2.50
2017-12-17T05:12:18.542Z,2.35
2017-12-17T05:14:46.312Z,2.50
2017-12-17T05:17:13.900Z,2.50
2017-12-17T05:19:41.447Z,2.50
2017-12-17T05:22:09.055Z,2.12
2017-12-17T05:24:36.641Z,2.50
2017-12-17T05:27:04.231Z,2.40
2017-12-17T05:29:32.052Z,2.70
2017-12-17T05:31:59.744Z,2.45
2017-12-17T05:34:27.370Z,2.70
2017-12-17T05:36:55.324Z,2.55
2017-12-17T05:39:22.929Z,2.80
2017-12-17T05:41:50.479Z,2.70
2017-12-17T05:44:18.257Z,3.40
2017-12-17T05:46:45.883Z,2.78
2017-12-17T05:49:13.509Z,2.28
2017-12-17T05:51:41.361Z,2.92
2017-12-17T05:54:09.873Z,3.28
2017-12-17T05:56:37.736Z,3.28
2017-12-17T05:59:05.346Z,2.80
2017-12-17T06:01:33.013Z,3.85
2017-12-17T06:04:00.804Z,3.03
2017-12-17T06:06:28.372Z,3.08
2017-12-17T06:08:55.949Z,3.70
2017-12-17T06:11:23.599Z,3.40
2017-12-17T06:13:51.194Z,3.42
2017-12-17T06:16:18.814Z,3.62
2017-12-17T06:18:46.404Z,4.07
2017-12-17T06:21:13.985Z,3.50
2017-12-17T06:23:41.614Z,3.40
2017-12-17T06:26:09.423Z,3.25
2017-12-17T06:28:37.057Z,3.20
2017-12-17T06:31:04.665Z,3.05
2017-12-17T06:33:32.242Z,2.53
2017-12-17T06:35:59.794Z,2.75
2017-12-17T06:38:27.697Z,3.58
2017-12-17T06:40:55.513Z,3.20
2017-12-17T06:43:23.138Z,2.90
2017-12-17T06:45:50.770Z,3.40
2017-12-17T06:48:18.331Z,3.37
2017-12-17T06:50:46.104Z,3.17
2017-12-17T06:53:13.772Z,3.05
2017-12-17T06:55:41.360Z,3.50
2017-12-17T06:58:09.038Z,4.00
2017-12-17T07:00:36.627Z,4.00
2017-12-17T07:03:04.224Z,3.40
2017-12-17T07:05:31.757Z,3.72
2017-12-17T07:07:59.351Z,3.60
2017-12-17T07:10:27.878Z,4.20
2017-12-17T07:12:55.466Z,4.30
2017-12-17T07:15:24.508Z,4.62
2017-12-17T07:17:52.116Z,4.65
2017-12-17T07:20:19.808Z,5.80
2017-12-17T07:22:47.419Z,5.20
2017-12-17T07:25:15.225Z,5.47
2017-12-17T07:27:42.795Z,3.90
2017-12-17T07:30:10.562Z,4.00
2017-12-17T07:32:38.373Z,4.85
2017-12-17T07:35:05.934Z,4.60
2017-12-17T07:37:33.562Z,4.80
2017-12-17T07:40:01.425Z,4.97
2017-12-17T07:42:29.011Z,4.00
2017-12-17T07:44:56.639Z,4.60
2017-12-17T07:47:24.268Z,4.30
2017-12-17T07:49:51.820Z,4.80
2017-12-17T07:52:19.420Z,4.65
2017-12-17T07:54:47.673Z,4.75
2017-12-17T07:57:15.475Z,4.37
2017-12-17T07:59:43.124Z,4.10
2017-12-17T08:02:10.930Z,5.20
2017-12-17T08:04:38.579Z,6.07
2017-12-17T08:07:06.372Z,5.15
2017-12-17T08:09:34.057Z,4.70
2017-12-17T08:12:01.629Z,5.62
2017-12-17T08:14:29.657Z,5.72
2017-12-17T08:16:57.279Z,6.30
2017-12-17T08:19:25.108Z,5.97
2017-12-17T08:21:52.728Z,6.15
2017-12-17T08:24:21.362Z,6.15
2017-12-17T08:26:54.526Z,5.10
2017-12-17T08:29:24.186Z,5.30
2017-12-17T08:31:51.869Z,4.43
2017-12-17T08:34:19.780Z,4.10
2017-12-17T08:36:47.334Z,5.40
2017-12-17T08:39:15.132Z,5.30
2017-12-17T08:41:44.173Z,5.32
2017-12-17T08:44:13.560Z,5.40
2017-12-17T08:46:41.286Z,5.70
2017-12-17T08:49:10.180Z,6.10
2017-12-17T08:55:25.089Z,6.90
2017-12-17T08:57:52.706Z,7.30
2017-12-17T09:00:24.069Z,7.85
2017-12-17T09:02:51.691Z,6.55
2017-12-17T09:05:19.500Z,7.78
2017-12-17T09:07:47.220Z,9.88
2017-12-17T09:10:18.125Z,6.40
2017-12-17T09:12:48.173Z,6.93
2017-12-17T09:15:19.173Z,8.07
2017-12-17T09:17:47.806Z,6.20
2017-12-17T09:20:16.749Z,7.18
2017-12-17T09:22:44.598Z,6.28
2017-12-17T09:25:12.664Z,6.93
2017-12-17T09:27:40.321Z,6.40
2017-12-17T09:30:09.416Z,6.78
2017-12-17T09:32:37.260Z,6.47
2017-12-17T09:35:05.447Z,6.95
2017-12-17T09:37:35.021Z,7.53
2017-12-17T09:40:02.883Z,7.90
2017-12-17T09:42:30.703Z,7.07
2017-12-17T09:44:58.603Z,8.25
2017-12-17T09:47:26.253Z,8.57
2017-12-17T09:49:53.844Z,8.63
2017-12-17T09:52:21.467Z,12.30
2017-12-17T09:54:49.636Z,10.63
2017-12-17T09:57:17.476Z,10.05
2017-12-17T09:59:45.341Z,10.98
2017-12-17T10:02:13.725Z,10.13
2017-12-17T10:04:42.667Z,9.70
2017-12-17T10:07:10.580Z,12.13
2017-12-17T10:09:38.929Z,9.05
2017-12-17T10:12:06.743Z,8.43
2017-12-17T10:14:34.433Z,11.63
2017-12-17T10:17:02.160Z,12.13
2017-12-17T10:19:30.926Z,13.80
2017-12-17T10:21:58.561Z,11.60
2017-12-17T10:24:26.239Z,11.52
2017-12-17T10:26:53.877Z,10.40
2017-12-17T10:29:21.700Z,10.63
2017-12-17T10:31:49.415Z,11.50
2017-12-17T10:34:17.198Z,14.20
2017-12-17T10:36:46.096Z,13.30
2017-12-17T10:39:14.568Z,15.05
2017-12-17T10:41:43.333Z,15.50
2017-12-17T10:44:11.138Z,15.45
2017-12-17T10:46:38.828Z,15.70
2017-12-17T10:49:06.420Z,15.65
2017-12-17T10:51:34.045Z,13.02
2017-12-17T10:54:02.543Z,12.77
2017-12-17T10:56:30.274Z,13.25
2017-12-17T10:58:58.191Z,12.40
2017-12-17T11:01:25.849Z,12.88
2017-12-17T11:03:54.313Z,13.20
2017-12-17T11:06:22.716Z,13.05
2017-12-17T11:08:50.476Z,13.05
2017-12-17T11:11:19.768Z,13.38
2017-12-17T11:13:47.537Z,15.15
2017-12-17T11:16:15.288Z,13.38
2017-12-17T11:18:43.142Z,14.15
2017-12-17T11:21:11.236Z,15.80
2017-12-17T11:23:40.021Z,16.73
2017-12-17T11:26:07.705Z,15.60
2017-12-17T11:28:35.531Z,14.98
2017-12-17T11:31:04.121Z,15.48
2017-12-17T11:33:31.916Z,16.10
2017-12-17T11:35:59.552Z,16.08
2017-12-17T11:38:27.552Z,14.00
2017-12-17T11:40:56.154Z,14.27
2017-12-17T11:43:25.435Z,12.35
2017-12-17T11:45:54.048Z,11.75
2017-12-17T11:48:21.777Z,12.68
2017-12-17T11:50:49.611Z,12.95
2017-12-17T11:53:18.184Z,13.02
2017-12-17T11:55:46.535Z,12.90
2017-12-17T11:58:15.261Z,12.60
2017-12-17T12:00:43.271Z,12.23
2017-12-17T12:03:12.675Z,12.07
2017-12-17T12:05:41.022Z,13.35
2017-12-17T12:08:08.677Z,15.57
2017-12-17T12:10:42.114Z,20.45
2017-12-17T12:13:11.009Z,16.35
2017-12-17T12:15:52.717Z,14.07
2017-12-17T12:18:22.014Z,13.90
2017-12-17T12:20:49.895Z,13.05
2017-12-17T12:23:17.553Z,13.35
2017-12-17T12:25:45.554Z,14.05
2017-12-17T12:28:14.742Z,13.35
2017-12-17T12:30:49.563Z,13.15
2017-12-17T12:33:20.870Z,11.55
2017-12-17T12:43:13.700Z,10.95
2017-12-17T12:45:54.691Z,11.05
2017-12-17T12:57:44.602Z,9.38
2017-12-17T13:00:13.653Z,9.80
2017-12-17T13:02:41.336Z,11.25
2017-12-17T13:05:08.975Z,10.75
2017-12-17T13:07:41.748Z,8.82
2017-12-17T13:10:10.209Z,9.10
2017-12-17T13:12:37.973Z,9.73
2017-12-17T13:15:05.665Z,9.32
2017-12-17T13:17:33.502Z,8.65
2017-12-17T13:20:01.425Z,9.80
2017-12-17T13:22:29.425Z,9.18
2017-12-17T13:24:57.905Z,9.15
2017-12-17T13:27:26.497Z,11.50
2017-12-17T13:29:54.166Z,12.15
2017-12-17T13:32:22.591Z,13.10
2017-12-17T13:34:50.376Z,14.25
2017-12-17T13:37:18.000Z,12.68
2017-12-17T13:39:46.612Z,12.30
2017-12-17T13:42:14.473Z,10.98
2017-12-17T13:44:42.127Z,10.85
2017-12-17T13:47:09.767Z,9.40
2017-12-17T13:49:37.636Z,10.75
2017-12-17T13:52:05.512Z,8.88
2017-12-17T13:54:33.371Z,9.65
2017-12-17T13:57:02.097Z,10.40
2017-12-17T13:59:30.181Z,8.75
2017-12-17T14:01:57.858Z,9.50
2017-12-17T14:04:26.656Z,10.85
2017-12-17T14:06:54.753Z,11.02
2017-12-17T14:12:58.243Z,10.15
2017-12-17T14:15:26.462Z,11.18
2017-12-17T14:17:54.286Z,9.90
2017-12-17T14:20:31.777Z,10.98
2017-12-17T14:23:00.457Z,8.85
2017-12-17T14:25:28.108Z,10.02
2017-12-17T14:27:55.747Z,10.85
2017-12-17T14:30:24.059Z,13.27
2017-12-17T14:32:52.513Z,11.95
2017-12-17T14:35:20.149Z,10.82
2017-12-17T14:37:48.711Z,9.75
2017-12-17T14:40:28.218Z,11.05
2017-12-17T14:42:55.874Z,11.35
2017-12-17T14:45:23.543Z,11.77
2017-12-17T14:47:51.229Z,11.10
2017-12-17T14:50:28.116Z,11.45
2017-12-17T14:52:56.609Z,12.00
2017-12-17T14:58:04.250Z,10.75
2017-12-17T15:00:32.174Z,14.20
2017-12-17T15:03:03.744Z,14.57
2017-12-17T15:05:43.710Z,12.90
2017-12-17T15:08:11.586Z,11.32
2017-12-17T15:10:39.594Z,11.95
2017-12-17T15:13:07.323Z,11.45
2017-12-17T15:15:35.622Z,11.65
2017-12-17T15:18:03.397Z,12.52
2017-12-17T15:20:31.054Z,11.98
2017-12-17T15:23:00.118Z,12.43
2017-12-17T15:25:27.794Z,13.25
2017-12-17T15:27:57.219Z,12.80
2017-12-17T15:30:25.921Z,13.38
2017-12-17T15:32:53.683Z,13.90
2017-12-17T15:35:21.488Z,13.45
2017-12-17T15:37:50.496Z,13.00
2017-12-17T15:40:19.068Z,12.85
2017-12-17T15:42:47.144Z,12.55
2017-12-17T15:45:15.820Z,12.32
2017-12-17T15:47:43.683Z,13.52
2017-12-17T15:50:12.288Z,14.40
2017-12-17T15:52:39.979Z,14.48
2017-12-17T15:55:07.694Z,12.70
2017-12-17T15:57:35.313Z,12.73
2017-12-17T16:00:05.091Z,12.45
2017-12-17T16:02:32.705Z,16.30
2017-12-17T16:05:00.443Z,18.35
2017-12-17T16:07:28.172Z,18.15
2017-12-17T16:09:55.836Z,16.92
2017-12-17T16:12:23.555Z,18.05
2017-12-17T16:14:51.351Z,15.82
2017-12-17T16:17:19.483Z,14.75
2017-12-17T16:19:49.281Z,15.25
2017-12-17T16:22:18.561Z,17.50
2017-12-17T16:24:51.643Z,16.85
2017-12-17T16:27:20.261Z,15.15
2017-12-17T16:29:48.044Z,13.55
2017-12-17T16:32:18.176Z,12.82
2017-12-17T16:37:22.569Z,13.73
2017-12-17T16:39:51.682Z,12.70
2017-12-17T16:42:20.353Z,13.02
2017-12-17T16:44:48.948Z,13.15
2017-12-17T16:47:17.416Z,10.95
2017-12-17T16:49:45.103Z,12.20
2017-12-17T16:52:12.976Z,11.12
2017-12-17T16:54:44.048Z,10.98
2017-12-17T16:57:11.719Z,12.07
2017-12-17T16:59:41.841Z,13.20
2017-12-17T17:02:09.554Z,10.73
2017-12-17T17:04:37.290Z,10.45
2017-12-17T17:07:05.358Z,11.00
2017-12-17T17:09:33.320Z,10.20
2017-12-17T17:12:01.067Z,11.43
2017-12-17T17:14:28.712Z,9.65
2017-12-17T17:16:57.059Z,9.50
2017-12-17T17:19:25.764Z,9.18
2017-12-17T17:21:53.404Z,9.93
2017-12-17T17:24:21.047Z,11.10
2017-12-17T17:26:48.958Z,9.55
2017-12-17T17:29:16.838Z,9.00
2017-12-17T17:31:44.788Z,9.43
2017-12-17T17:34:13.365Z,10.07
2017-12-17T17:36:41.022Z,9.23
2017-12-17T17:39:09.299Z,9.15
2017-12-17T17:41:38.116Z,9.40
2017-12-17T17:44:06.031Z,9.73
2017-12-17T17:46:33.730Z,9.80
2017-12-17T17:49:01.377Z,11.70
2017-12-17T17:51:29.288Z,10.68
2017-12-17T17:53:57.013Z,10.15
2017-12-17T17:56:25.179Z,11.20
2017-12-17T17:58:53.738Z,11.05
2017-12-17T18:01:22.120Z,11.95
2017-12-17T18:03:49.916Z,11.85
2017-12-17T18:06:18.103Z,10.80
2017-12-17T18:08:47.488Z,9.63
2017-12-17T18:11:15.864Z,10.70
2017-12-17T18:13:43.646Z,9.85
2017-12-17T18:16:12.284Z,10.02
2017-12-17T18:18:41.510Z,9.50
2017-12-17T18:21:12.954Z,9.93
2017-12-17T18:23:41.352Z,9.05
2017-12-17T18:26:09.179Z,8.75
2017-12-17T18:28:38.168Z,8.52
2017-12-17T18:31:05.853Z,8.30
2017-12-17T18:33:33.739Z,9.50
2017-12-17T18:36:01.570Z,8.55
2017-12-17T18:38:29.386Z,9.35
2017-12-17T18:40:56.972Z,9.60
2017-12-17T18:43:25.235Z,8.98
2017-12-17T18:45:53.052Z,9.23
2017-12-17T18:48:20.819Z,10.80
2017-12-17T18:50:50.301Z,10.80
2017-12-17T18:53:18.753Z,11.15
2017-12-17T18:55:46.347Z,9.18
2017-12-17T18:58:14.654Z,10.80
2017-12-17T19:00:43.073Z,10.50
2017-12-17T19:03:11.833Z,9.27
2017-12-17T19:05:44.804Z,9.25
2017-12-17T19:08:24.535Z,11.73
2017-12-17T19:10:52.460Z,11.55
2017-12-17T19:13:21.249Z,12.10
2017-12-17T19:15:50.373Z,11.52
2017-12-17T19:18:18.022Z,12.73
2017-12-17T19:20:46.330Z,13.02
2017-12-17T19:23:13.994Z,13.07
2017-12-17T19:25:41.632Z,12.32
2017-12-17T19:28:09.284Z,13.27
2017-12-17T19:30:37.689Z,13.93
2017-12-17T19:33:05.415Z,13.02
2017-12-17T19:35:33.200Z,12.75
2017-12-17T19:38:01.717Z,12.27
2017-12-17T19:40:31.608Z,12.98
2017-12-17T19:43:01.012Z,14.15
2017-12-17T19:45:29.660Z,13.48
2017-12-17T19:47:59.022Z,13.50
2017-12-17T19:50:26.733Z,14.75
2017-12-17T19:52:55.164Z,14.68
2017-12-17T19:55:22.872Z,14.87
2017-12-17T19:57:50.648Z,12.15
2017-12-17T20:00:18.578Z,13.20
2017-12-17T20:02:46.396Z,12.30
2017-12-17T20:05:14.655Z,12.88
2017-12-17T20:07:43.335Z,11.95
2017-12-17T20:10:11.087Z,13.40
2017-12-17T20:12:39.851Z,13.02
2017-12-17T20:15:07.762Z,12.63
2017-12-17T20:17:36.547Z,13.20
2017-12-17T20:20:05.706Z,12.18
2017-12-17T20:22:36.374Z,12.13
2017-12-17T20:25:04.198Z,11.70
2017-12-17T20:27:32.317Z,12.73
2017-12-17T20:29:59.915Z,12.77
2017-12-17T20:32:28.163Z,12.43
2017-12-17T20:34:55.784Z,18.27
2017-12-17T20:37:24.124Z,12.02
2017-12-17T20:39:52.729Z,12.48
2017-12-17T20:42:20.399Z,12.13
2017-12-17T20:44:48.645Z,12.23
2017-12-17T20:47:16.265Z,11.45
2017-12-17T20:49:44.095Z,12.07
2017-12-17T20:52:12.522Z,12.18
2017-12-17T20:54:40.155Z,12.80
2017-12-17T20:57:08.021Z,11.85
2017-12-17T20:59:36.542Z,12.68
2017-12-17T21:02:11.950Z,11.80
2017-12-17T21:04:39.772Z,12.23
2017-12-17T21:07:07.340Z,12.00
2017-12-17T21:09:34.933Z,11.40
2017-12-17T21:12:02.495Z,14.45
2017-12-17T21:14:32.117Z,12.80
2017-12-17T21:16:59.746Z,14.00
2017-12-17T21:19:27.408Z,11.20
2017-12-17T21:22:04.099Z,10.48
2017-12-17T21:24:32.821Z,10.95
2017-12-17T21:27:00.395Z,11.77
2017-12-17T21:29:28.023Z,11.70
2017-12-17T21:31:55.629Z,9.40
2017-12-17T21:34:23.443Z,9.57
2017-12-17T21:36:51.636Z,10.52
2017-12-17T21:39:20.282Z,11.82
2017-12-17T21:41:47.918Z,10.18
2017-12-17T21:44:16.454Z,11.43
2017-12-17T21:46:44.082Z,11.60
2017-12-17T21:49:12.379Z,12.68
2017-12-17T21:51:39.971Z,10.75
2017-12-17T21:54:07.583Z,12.20
2017-12-17T21:56:35.378Z,11.95
2017-12-17T21:59:03.183Z,9.70
2017-12-17T22:01:30.851Z,11.93
2017-12-17T22:04:06.437Z,11.98
2017-12-17T22:06:51.823Z,10.43
2017-12-17T22:09:20.047Z,10.93
2017-12-17T22:11:47.797Z,10.05
2017-12-17T22:14:17.270Z,10.45
2017-12-17T22:16:44.935Z,10.10
2017-12-17T22:19:12.586Z,9.50
2017-12-17T22:21:40.170Z,11.02
2017-12-17T22:24:07.792Z,12.18
2017-12-17T22:26:35.400Z,14.40
2017-12-17T22:29:06.677Z,11.20
2017-12-17T22:31:35.164Z,10.95
2017-12-17T22:34:04.828Z,9.85
2017-12-17T22:36:32.588Z,9.02
2017-12-17T22:39:01.295Z,8.77
2017-12-17T22:41:29.151Z,9.30
2017-12-17T22:43:56.737Z,10.85
2017-12-17T22:46:24.967Z,9.85
2017-12-17T22:48:52.589Z,8.60
2017-12-17T22:51:21.510Z,11.38
2017-12-17T22:53:50.618Z,10.20
2017-12-17T22:56:18.448Z,9.55
2017-12-17T22:58:46.600Z,10.07
2017-12-17T23:01:14.152Z,9.82
2017-12-17T23:03:41.932Z,8.90
2017-12-17T23:06:09.726Z,9.38
2017-12-17T23:08:37.315Z,9.95
2017-12-17T23:11:05.538Z,9.25
2017-12-17T23:13:33.295Z,9.35
2017-12-17T23:16:00.890Z,9.10
2017-12-17T23:18:28.515Z,9.93
2017-12-17T23:20:56.294Z,11.05
2017-12-17T23:23:23.953Z,10.35
2017-12-17T23:25:51.767Z,9.20
2017-12-17T23:28:19.552Z,10.02
2017-12-17T23:30:47.497Z,9.95
2017-12-17T23:33:15.166Z,9.75
2017-12-17T23:35:43.561Z,10.30
2017-12-17T23:38:11.194Z,9.13
2017-12-17T23:40:38.955Z,9.50
2017-12-17T23:43:06.628Z,10.10
2017-12-17T23:45:34.267Z,9.05
2017-12-17T23:48:03.154Z,9.15
2017-12-17T23:50:30.711Z,8.90
2017-12-17T23:52:58.297Z,9.45
2017-12-17T23:55:25.842Z,9.50
2017-12-17T23:57:53.736Z,11.48
